Time;durP1;ratioP1;P1;durP2;ratioP2;P2;SDS_P1;SDS_P2;PMS_P1;PMS_P2;Temp;Humidity;BMP_temperature;BMP_pressure;BME280_temperature;BME280_humidity;BME280_pressure;Samples;Min_cycle;Max_cycle;Signal;HPM_P1;HPM_P2
2021/06/02 00:02:13;;;;;;;7.25;3.97;;;13.40;72.00;;;;;;5055005;28;20025;-74
2021/06/02 00:04:47;;;;;;;7.18;4.55;;;13.40;72.20;;;;;;5054843;28;20036;-74
2021/06/02 00:07:23;;;;;;;8.43;4.82;;;13.30;72.50;;;;;;5054901;28;20060;-74
2021/06/02 00:09:52;;;;;;;8.45;4.75;;;13.30;72.70;;;;;;5054912;28;20110;-74
2021/06/02 00:12:19;;;;;;;6.75;5.07;;;13.30;72.90;;;;;;5054833;28;20367;-74
2021/06/02 00:14:45;;;;;;;5.68;5.10;;;13.20;72.90;;;;;;5054939;28;20052;-74
2021/06/02 00:17:11;;;;;;;5.50;4.78;;;13.20;73.10;;;;;;5054738;28;20387;-74
2021/06/02 00:19:38;;;;;;;6.40;4.85;;;13.10;73.30;;;;;;5054503;28;20051;-74
2021/06/02 00:22:08;;;;;;;7.22;5.22;;;13.10;73.60;;;;;;5054621;28;20029;-74
2021/06/02 00:24:35;;;;;;;10.43;5.22;;;13.10;74.00;;;;;;5054623;28;20029;-74
2021/06/02 00:27:05;;;;;;;7.15;4.85;;;13.00;74.10;;;;;;5054414;28;20037;-73
2021/06/02 00:29:35;;;;;;;7.63;5.00;;;13.00;74.40;;;;;;5054120;28;20025;-74
2021/06/02 00:32:03;;;;;;;9.73;5.13;;;13.00;74.60;;;;;;5054354;28;20113;-74
2021/06/02 00:34:30;;;;;;;7.30;5.47;;;13.00;74.80;;;;;;5054015;28;20038;-74
2021/06/02 00:36:57;;;;;;;8.05;5.25;;;13.00;75.00;;;;;;5054215;28;20029;-74
2021/06/02 00:39:23;;;;;;;14.43;5.50;;;13.00;75.10;;;;;;5054353;28;20037;-74
2021/06/02 00:41:49;;;;;;;7.22;5.13;;;13.00;75.00;;;;;;5054497;28;20063;-74
2021/06/02 00:44:17;;;;;;;6.93;5.13;;;13.00;75.20;;;;;;5053296;28;20020;-74
2021/06/02 00:46:44;;;;;;;6.80;5.30;;;13.00;75.30;;;;;;5054204;28;20112;-74
2021/06/02 00:49:21;;;;;;;11.35;5.75;;;12.90;75.20;;;;;;5053568;28;20059;-74
2021/06/02 00:51:54;;;;;;;9.20;5.43;;;12.90;76.00;;;;;;5054013;28;20025;-74
2021/06/02 00:54:20;;;;;;;10.27;5.93;;;12.90;75.60;;;;;;5054286;28;20033;-74
2021/06/02 00:57:09;;;;;;;8.60;5.47;;;12.90;75.60;;;;;;5053762;28;20029;-74
2021/06/02 00:59:40;;;;;;;6.40;4.72;;;12.90;75.80;;;;;;5054278;28;20036;-74
2021/06/02 01:02:19;;;;;;;6.53;5.00;;;12.90;75.80;;;;;;5053857;28;20021;-74
2021/06/02 01:04:47;;;;;;;7.05;5.20;;;12.90;75.80;;;;;;5054039;28;20090;-74
2021/06/02 01:07:13;;;;;;;7.35;5.53;;;12.90;75.90;;;;;;5053929;28;20083;-74
2021/06/02 01:09:48;;;;;;;7.15;4.65;;;12.90;76.10;;;;;;5053721;28;20033;-74
2021/06/02 01:12:20;;;;;;;6.88;4.80;;;12.90;76.30;;;;;;5053759;28;20059;-74
2021/06/02 01:14:47;;;;;;;7.82;5.28;;;12.90;76.20;;;;;;5061489;28;20559;-74
2021/06/02 01:17:33;;;;;;;6.82;5.18;;;12.90;76.30;;;;;;5076468;28;20097;-74
2021/06/02 01:20:00;;;;;;;7.00;5.43;;;12.80;76.50;;;;;;5093836;28;20059;-74
2021/06/02 01:22:33;;;;;;;8.73;5.28;;;12.80;76.60;;;;;;5093697;28;20073;-75
2021/06/02 01:25:26;;;;;;;10.00;5.60;;;12.80;76.80;;;;;;5093818;28;20024;-74
2021/06/02 01:27:51;;;;;;;8.90;5.28;;;12.80;77.00;;;;;;5093570;28;20107;-74
2021/06/02 01:30:21;;;;;;;6.80;6.00;;;12.70;77.00;;;;;;5080888;28;20495;-74
2021/06/02 01:33:24;;;;;;;5.63;4.85;;;12.80;77.40;;;;;;5072169;28;20028;-74
2021/06/02 01:35:54;;;;;;;6.20;4.75;;;12.70;77.60;;;;;;5073108;28;20400;-74
2021/06/02 01:38:47;;;;;;;7.35;4.90;;;12.70;77.60;;;;;;5073334;28;20086;-74
2021/06/02 01:41:33;;;;;;;7.30;5.40;;;12.70;77.70;;;;;;5073517;28;20049;-74
2021/06/02 01:44:01;;;;;;;8.68;4.88;;;12.70;78.00;;;;;;5073393;28;20059;-74
2021/06/02 01:46:51;;;;;;;6.63;5.07;;;12.70;78.00;;;;;;5073219;28;20032;-75
2021/06/02 01:49:41;;;;;;;7.30;5.30;;;12.60;78.10;;;;;;5073577;28;20375;-74
2021/06/02 01:52:18;;;;;;;7.78;4.95;;;12.60;78.20;;;;;;5072951;28;20414;-74
2021/06/02 01:55:05;;;;;;;10.60;5.20;;;12.60;78.50;;;;;;5073201;28;20032;-75
2021/06/02 01:57:31;;;;;;;6.07;5.00;;;12.60;78.60;;;;;;5069578;28;20388;-75
2021/06/02 02:00:10;;;;;;;7.97;5.55;;;12.50;78.70;;;;;;5065830;28;20055;-76
2021/06/02 02:02:57;;;;;;;5.68;4.80;;;12.60;79.00;;;;;;5065544;28;20026;-73
2021/06/02 02:05:46;;;;;;;6.80;5.03;;;12.50;79.30;;;;;;5065207;28;20111;-74
2021/06/02 02:08:41;;;;;;;9.27;5.18;;;12.50;79.50;;;;;;5066151;28;20119;-75
2021/06/02 02:11:16;;;;;;;7.72;5.45;;;12.50;79.50;;;;;;5065464;28;20040;-75
2021/06/02 02:14:00;;;;;;;;;;;12.50;79.60;;;;;;5064890;28;20017;-75
2021/06/02 02:16:54;;;;;;;9.45;5.40;;;12.50;79.30;;;;;;5065091;28;20278;-75
2021/06/02 02:19:38;;;;;;;6.38;5.13;;;12.50;79.60;;;;;;5066847;28;20470;-74
2021/06/02 02:22:22;;;;;;;6.87;4.83;;;12.50;80.10;;;;;;5065150;28;20028;-74
2021/06/02 02:24:55;;;;;;;6.30;4.67;;;12.50;80.40;;;;;;5065501;28;20020;-75
2021/06/02 02:27:41;;;;;;;8.23;5.07;;;12.50;80.40;;;;;;5064458;28;20423;-74
2021/06/02 02:30:10;;;;;;;8.95;5.88;;;12.50;80.70;;;;;;5065153;28;20068;-74
2021/06/02 02:32:54;;;;;;;7.90;5.00;;;12.50;80.80;;;;;;5064282;28;20440;-75
2021/06/02 02:35:45;;;;;;;9.18;5.00;;;12.50;81.00;;;;;;5064135;28;20021;-74
2021/06/02 02:38:48;;;;;;;10.75;5.60;;;12.50;81.10;;;;;;5066422;28;20104;-75
2021/06/02 02:41:36;;;;;;;6.20;4.97;;;12.50;81.20;;;;;;5063656;28;20509;-74
2021/06/02 02:44:07;;;;;;;6.57;5.28;;;12.50;81.20;;;;;;5066233;28;20051;-75
2021/06/02 02:47:09;;;;;;;8.88;5.30;;;12.50;81.40;;;;;;5063616;28;20057;-74
2021/06/02 02:50:10;;;;;;;6.70;5.13;;;12.50;81.70;;;;;;5066054;28;20021;-74
2021/06/02 02:52:39;;;;;;;6.70;5.22;;;12.60;81.70;;;;;;5063522;28;20410;-74
2021/06/02 02:55:11;;;;;;;10.43;5.32;;;12.60;81.50;;;;;;5064384;28;20830;-75
2021/06/02 02:57:40;;;;;;;6.97;4.88;;;12.60;81.70;;;;;;5066379;28;20548;-75
2021/06/02 03:00:08;;;;;;;7.60;5.10;;;12.60;81.70;;;;;;5064687;28;20051;-75
2021/06/02 03:02:45;;;;;;;6.55;4.35;;;12.60;81.70;;;;;;5064268;28;20474;-75
2021/06/02 03:05:23;;;;;;;6.47;4.82;;;12.70;81.80;;;;;;5066146;28;20366;-75
2021/06/02 03:07:59;;;;;;;8.75;4.82;;;12.70;81.90;;;;;;5063883;28;20052;-75
2021/06/02 03:10:29;;;;;;;4.68;4.03;;;12.70;81.80;;;;;;5064181;28;20025;-75
2021/06/02 03:13:03;;;;;;;7.80;4.35;;;12.70;81.80;;;;;;5064327;28;20489;-75
2021/06/02 03:15:48;;;;;;;8.00;4.33;;;12.70;81.80;;;;;;5064422;28;20028;-75
2021/06/02 03:18:35;;;;;;;5.55;4.45;;;12.70;81.70;;;;;;5064868;28;20273;-74
2021/06/02 03:21:14;;;;;;;5.72;4.85;;;12.70;81.60;;;;;;5065430;28;20028;-74
2021/06/02 03:23:59;;;;;;;7.15;4.72;;;12.70;81.70;;;;;;5065105;28;20025;-75
2021/06/02 03:26:37;;;;;;;5.03;4.30;;;12.70;81.80;;;;;;5060303;28;20032;-74
2021/06/02 03:29:14;;;;;;;6.55;4.47;;;12.70;81.70;;;;;;5055982;28;20028;-74
2021/06/02 03:31:58;;;;;;;5.18;4.57;;;12.70;81.70;;;;;;5055917;28;20079;-75
2021/06/02 03:34:27;;;;;;;5.72;4.18;;;12.70;81.90;;;;;;5055674;28;20108;-74
2021/06/02 03:37:03;;;;;;;5.18;4.15;;;12.70;82.00;;;;;;5055555;28;20033;-74
2021/06/02 03:39:57;;;;;;;6.28;4.82;;;12.70;82.00;;;;;;5055583;28;20467;-75
2021/06/02 03:42:47;;;;;;;5.10;4.60;;;12.70;82.10;;;;;;5054213;28;20044;-74
2021/06/02 03:45:31;;;;;;;6.13;4.28;;;12.70;82.30;;;;;;5055940;28;20344;-74
2021/06/02 03:48:18;;;;;;;6.82;5.40;;;12.70;82.30;;;;;;5055575;28;20098;-74
2021/06/02 03:51:02;;;;;;;8.18;4.70;;;12.70;82.30;;;;;;5055345;28;20037;-74
2021/06/02 03:54:11;;;;;;;6.05;4.88;;;12.70;82.50;;;;;;5054649;28;20026;-74
2021/06/02 03:56:59;;;;;;;6.80;4.35;;;12.80;82.50;;;;;;5022556;28;20045;-74
2021/06/02 03:59:43;;;;;;;5.50;4.20;;;12.80;82.30;;;;;;5055229;28;20028;-74
2021/06/02 04:02:19;;;;;;;7.20;4.60;;;12.80;82.40;;;;;;5055255;28;20055;-74
2021/06/02 04:05:13;;;;;;;5.60;4.65;;;12.80;82.50;;;;;;5055363;28;20410;-74
2021/06/02 04:08:16;;;;;;;5.45;4.10;;;12.80;82.50;;;;;;5055266;28;20045;-74
2021/06/02 04:10:57;;;;;;;5.82;4.63;;;12.80;82.50;;;;;;5055200;28;20417;-74
2021/06/02 04:13:30;;;;;;;4.82;4.05;;;12.90;82.60;;;;;;5055260;28;20033;-75
2021/06/02 04:16:12;;;;;;;4.72;4.07;;;12.90;82.50;;;;;;5054471;28;20108;-75
2021/06/02 04:18:41;;;;;;;8.30;4.60;;;12.90;82.60;;;;;;5055220;28;20029;-75
2021/06/02 04:21:07;;;;;;;4.93;4.25;;;12.90;82.60;;;;;;5054537;28;20382;-75
2021/06/02 04:23:36;;;;;;;5.35;4.07;;;12.90;82.70;;;;;;5054803;28;20102;-75
2021/06/02 04:26:03;;;;;;;6.28;4.30;;;12.90;82.70;;;;;;5054912;28;20443;-75
2021/06/02 04:28:33;;;;;;;5.20;4.68;;;12.90;82.70;;;;;;5054332;28;20120;-76
2021/06/02 04:31:10;;;;;;;4.63;4.10;;;12.90;82.90;;;;;;5054327;28;20066;-75
2021/06/02 04:33:38;;;;;;;4.88;4.10;;;13.00;83.00;;;;;;5054206;28;20033;-75
2021/06/02 04:36:06;;;;;;;6.75;4.30;;;13.00;82.90;;;;;;5076060;28;20536;-75
2021/06/02 04:38:32;;;;;;;5.63;3.72;;;13.00;82.90;;;;;;5074811;28;20036;-74
2021/06/02 04:41:06;;;;;;;6.07;4.38;;;13.00;82.70;;;;;;5072977;28;20043;-75
2021/06/02 04:43:36;;;;;;;4.88;4.13;;;13.00;82.80;;;;;;5078718;28;20020;-75
2021/06/02 04:46:05;;;;;;;6.80;4.25;;;13.00;82.90;;;;;;5094331;28;20488;-75
2021/06/02 04:48:31;;;;;;;5.88;3.92;;;13.00;83.00;;;;;;5093956;28;20131;-76
2021/06/02 04:51:08;;;;;;;6.07;4.30;;;13.00;83.00;;;;;;5094281;28;20089;-75
2021/06/02 04:54:39;;;;;;;7.35;4.45;;;13.10;83.20;;;;;;5093827;28;20032;-75
2021/06/02 04:57:27;;;;;;;5.78;4.13;;;13.10;83.10;;;;;;5031545;28;20124;-74
2021/06/02 05:00:20;;;;;;;5.57;4.38;;;13.10;83.00;;;;;;5090257;28;20064;-76
2021/06/02 05:03:04;;;;;;;4.57;3.75;;;13.10;83.00;;;;;;5094041;28;20189;-75
2021/06/02 05:05:47;;;;;;;5.20;3.65;;;13.10;83.00;;;;;;5093745;28;20051;-75
2021/06/02 05:08:40;;;;;;;5.18;3.60;;;13.10;83.20;;;;;;5093684;28;20028;-73
2021/06/02 05:11:46;;;;;;;4.80;3.72;;;13.10;83.20;;;;;;5072276;28;20033;-75
2021/06/02 05:14:36;;;;;;;5.90;3.90;;;13.10;83.00;;;;;;5053905;28;20029;-74
2021/06/02 05:17:20;;;;;;;5.57;3.88;;;13.10;83.20;;;;;;5053974;28;20368;-75
2021/06/02 05:20:25;;;;;;;5.40;4.33;;;13.10;83.30;;;;;;5056135;28;20020;-75
2021/06/02 05:23:25;;;;;;;5.07;3.88;;;13.10;83.30;;;;;;5070909;28;20115;-75
2021/06/02 05:26:05;;;;;;;8.35;3.97;;;13.10;83.40;;;;;;5065075;28;20028;-75
2021/06/02 05:28:49;;;;;;;6.47;4.32;;;13.10;83.50;;;;;;5063211;28;20021;-75
2021/06/02 05:31:24;;;;;;;9.80;3.90;;;13.10;83.70;;;;;;5062555;28;20017;-76
2021/06/02 05:33:52;;;;;;;4.65;4.00;;;13.10;83.70;;;;;;5062736;28;20364;-75
2021/06/02 05:36:46;;;;;;;5.05;4.15;;;13.20;83.70;;;;;;5061747;28;20082;-75
2021/06/02 05:39:33;;;;;;;4.57;4.03;;;13.20;83.80;;;;;;5063152;28;20024;-77
2021/06/02 05:42:32;;;;;;;5.78;3.67;;;13.20;83.70;;;;;;5063956;28;20028;-75
2021/06/02 05:45:26;;;;;;;7.07;6.10;;;13.30;83.60;;;;;;5063513;28;20012;-75
2021/06/02 05:47:55;;;;;;;6.32;3.97;;;13.30;83.70;;;;;;5061598;28;20032;-75
2021/06/02 05:50:36;;;;;;;9.13;4.30;;;13.30;83.60;;;;;;5061359;28;20021;-75
2021/06/02 05:53:15;;;;;;;6.68;4.40;;;13.40;83.80;;;;;;5059696;28;20347;-76
2021/06/02 05:55:55;;;;;;;7.15;4.30;;;13.40;83.70;;;;;;5066766;28;20041;-75
2021/06/02 05:58:46;;;;;;;8.15;3.97;;;13.40;83.60;;;;;;5063726;28;20367;-74
2021/06/02 06:01:36;;;;;;;5.22;4.10;;;13.50;83.50;;;;;;5053452;28;20455;-74
2021/06/02 06:04:27;;;;;;;4.90;3.78;;;13.50;83.10;;;;;;5052856;28;20025;-74
2021/06/02 06:07:17;;;;;;;9.65;4.38;;;13.50;82.90;;;;;;5056170;28;20033;-75
2021/06/02 06:10:04;;;;;;;5.82;4.28;;;13.50;82.90;;;;;;5073057;28;20025;-75
2021/06/02 06:12:46;;;;;;;7.00;4.68;;;13.50;82.90;;;;;;5053093;28;20035;-75
2021/06/02 06:15:42;;;;;;;9.25;4.55;;;13.50;83.00;;;;;;5053032;28;20053;-75
2021/06/02 06:18:46;;;;;;;5.32;4.70;;;13.50;83.20;;;;;;5052850;28;20040;-75
2021/06/02 06:21:28;;;;;;;6.38;4.30;;;13.50;83.00;;;;;;5062981;28;20048;-75
2021/06/02 06:24:04;;;;;;;9.57;5.85;;;13.60;82.90;;;;;;5072847;28;20052;-75
2021/06/02 06:26:36;;;;;;;7.00;4.22;;;13.60;83.00;;;;;;5072537;28;20517;-75
2021/06/02 06:29:17;;;;;;;5.22;4.03;;;13.60;82.90;;;;;;5071292;28;20036;-75
2021/06/02 06:31:49;;;;;;;6.63;4.10;;;13.70;83.00;;;;;;5052871;28;20029;-74
2021/06/02 06:34:18;;;;;;;8.43;3.95;;;13.70;82.80;;;;;;5052849;28;20029;-74
2021/06/02 06:36:47;;;;;;;5.03;4.05;;;13.70;82.70;;;;;;5052600;28;20037;-74
2021/06/02 06:39:41;;;;;;;6.32;3.97;;;13.70;82.70;;;;;;5059980;28;20025;-73
2021/06/02 06:42:11;;;;;;;5.30;4.05;;;13.80;82.50;;;;;;5072702;28;20032;-75
2021/06/02 06:44:41;;;;;;;5.80;4.20;;;13.80;82.40;;;;;;5076080;28;20032;-76
2021/06/02 06:47:08;;;;;;;8.95;4.47;;;13.90;82.40;;;;;;5061510;28;20044;-75
2021/06/02 06:49:35;;;;;;;6.45;4.25;;;13.90;82.40;;;;;;5056626;28;20055;-75
2021/06/02 06:52:02;;;;;;;5.43;3.72;;;13.90;82.30;;;;;;5056231;28;20380;-74
2021/06/02 06:54:30;;;;;;;6.07;4.30;;;13.90;82.20;;;;;;5066093;28;20035;-74
2021/06/02 06:56:56;;;;;;;8.32;3.97;;;14.00;82.20;;;;;;5067097;28;20032;-75
2021/06/02 06:59:23;;;;;;;7.28;4.75;;;14.00;82.00;;;;;;5064433;28;20025;-75
2021/06/02 07:01:49;;;;;;;5.20;3.85;;;14.00;82.00;;;;;;5060730;28;20049;-75
2021/06/02 07:04:15;;;;;;;9.50;4.60;;;14.00;82.50;;;;;;5055660;28;20079;-75
2021/06/02 07:06:44;;;;;;;5.15;3.95;;;14.10;81.90;;;;;;5055933;28;20451;-75
2021/06/02 07:09:09;;;;;;;8.82;5.03;;;14.10;81.80;;;;;;5056155;28;20064;-75
2021/06/02 07:11:45;;;;;;;9.45;4.40;;;14.10;81.60;;;;;;5067111;28;20056;-75
2021/06/02 07:14:17;;;;;;;5.65;4.30;;;14.10;81.60;;;;;;5076163;28;20399;-75
2021/06/02 07:16:44;;;;;;;5.43;4.25;;;14.20;81.40;;;;;;5074486;28;20063;-75
2021/06/02 07:19:11;;;;;;;5.28;4.20;;;14.20;81.40;;;;;;5064915;28;20024;-75
2021/06/02 07:21:42;;;;;;;8.43;4.68;;;14.20;81.40;;;;;;5063450;28;20044;-75
2021/06/02 07:24:09;;;;;;;8.05;4.18;;;14.20;81.30;;;;;;5063762;28;20055;-75
2021/06/02 07:26:35;;;;;;;7.75;4.50;;;14.20;81.40;;;;;;5065162;28;20063;-75
2021/06/02 07:29:00;;;;;;;5.72;3.80;;;14.30;81.40;;;;;;5063820;28;20056;-75
2021/06/02 07:31:26;;;;;;;8.75;4.47;;;14.30;81.40;;;;;;5063927;28;20021;-75
2021/06/02 07:33:52;;;;;;;10.50;4.45;;;14.30;81.20;;;;;;5064888;28;20167;-76
2021/06/02 07:36:18;;;;;;;8.50;4.75;;;14.40;81.10;;;;;;5063288;28;20025;-75
2021/06/02 07:38:44;;;;;;;6.80;3.92;;;14.40;80.90;;;;;;5063894;28;20105;-75
2021/06/02 07:41:10;;;;;;;6.60;3.90;;;14.50;80.70;;;;;;5064455;28;20033;-75
2021/06/02 07:43:35;;;;;;;6.93;3.72;;;14.40;80.40;;;;;;5063170;28;20021;-75
2021/06/02 07:46:01;;;;;;;7.07;4.05;;;14.40;80.40;;;;;;5064414;28;20025;-75
2021/06/02 07:48:27;;;;;;;6.13;3.97;;;14.50;80.30;;;;;;5063873;28;20122;-75
2021/06/02 07:50:53;;;;;;;6.65;4.32;;;14.50;80.10;;;;;;5062274;28;20029;-76
2021/06/02 07:53:19;;;;;;;6.72;3.90;;;14.50;80.00;;;;;;5064119;28;20017;-76
2021/06/02 07:55:44;;;;;;;5.35;3.53;;;14.60;79.80;;;;;;5063168;28;20036;-76
2021/06/02 07:58:10;;;;;;;5.90;3.70;;;14.60;79.60;;;;;;5062885;28;20116;-75
2021/06/02 08:00:36;;;;;;;5.60;4.10;;;14.60;79.60;;;;;;5063865;28;20030;-75
2021/06/02 08:03:02;;;;;;;7.70;3.63;;;14.70;79.60;;;;;;5062987;28;20025;-75
2021/06/02 08:05:29;;;;;;;8.57;4.32;;;14.70;79.30;;;;;;5063029;28;20103;-75
2021/06/02 08:07:55;;;;;;;5.65;3.80;;;14.70;79.30;;;;;;5064370;28;20052;-75
2021/06/02 08:10:20;;;;;;;6.47;3.42;;;14.70;79.10;;;;;;5062459;28;20060;-75
2021/06/02 08:12:47;;;;;;;7.60;4.40;;;14.80;79.00;;;;;;5063075;28;20020;-76
2021/06/02 08:15:14;;;;;;;8.63;3.67;;;14.80;78.90;;;;;;5063716;28;20025;-75
2021/06/02 08:17:40;;;;;;;8.00;3.50;;;14.80;78.80;;;;;;5061760;28;20029;-75
2021/06/02 08:20:09;;;;;;;7.63;3.75;;;14.90;78.80;;;;;;5064283;28;20063;-76
2021/06/02 08:22:35;;;;;;;6.97;4.20;;;14.90;78.70;;;;;;5062368;28;20029;-75
2021/06/02 08:25:06;;;;;;;6.72;3.70;;;15.00;78.60;;;;;;5062116;28;20083;-74
2021/06/02 08:27:32;;;;;;;5.88;4.18;;;15.00;79.00;;;;;;5063012;28;20028;-74
2021/06/02 08:29:58;;;;;;;4.50;3.65;;;15.00;78.10;;;;;;5064101;28;20364;-75
2021/06/02 08:32:25;;;;;;;5.28;3.72;;;15.00;78.00;;;;;;5061903;28;20033;-74
2021/06/02 08:34:52;;;;;;;5.90;3.60;;;15.10;78.10;;;;;;5064326;28;20117;-74
2021/06/02 08:37:18;;;;;;;6.00;3.60;;;15.00;78.10;;;;;;5062368;28;20068;-75
2021/06/02 08:39:44;;;;;;;7.97;4.30;;;15.10;78.30;;;;;;5061935;28;20021;-75
2021/06/02 08:42:11;;;;;;;7.30;4.05;;;15.00;78.30;;;;;;5063513;28;20075;-76
2021/06/02 08:44:37;;;;;;;4.45;3.92;;;15.00;78.50;;;;;;5063864;28;20451;-75
2021/06/02 08:47:03;;;;;;;7.20;3.83;;;15.00;78.80;;;;;;5060440;28;20036;-76
2021/06/02 08:49:30;;;;;;;5.47;4.18;;;15.00;78.90;;;;;;5063244;28;20020;-75
2021/06/02 08:51:57;;;;;;;10.15;4.32;;;14.90;79.00;;;;;;5063328;28;20027;-76
2021/06/02 08:54:24;;;;;;;4.72;3.47;;;14.90;79.30;;;;;;5061445;28;20033;-75
2021/06/02 08:56:49;;;;;;;5.03;3.80;;;14.90;79.60;;;;;;5062978;28;20027;-74
2021/06/02 08:59:20;;;;;;;7.20;3.80;;;14.90;79.80;;;;;;5063253;28;20028;-74
2021/06/02 09:01:48;;;;;;;6.28;3.85;;;15.00;79.90;;;;;;5061671;28;20024;-75
2021/06/02 09:04:14;;;;;;;6.05;3.75;;;14.90;79.80;;;;;;5059129;28;20029;-76
2021/06/02 09:06:45;;;;;;;4.85;3.70;;;14.90;79.50;;;;;;5053861;28;20364;-76
2021/06/02 09:09:12;;;;;;;6.47;3.92;;;14.90;79.50;;;;;;5052678;28;20431;-75
2021/06/02 09:11:44;;;;;;;5.15;3.90;;;14.90;79.90;;;;;;5058334;28;20074;-75
2021/06/02 09:14:27;;;;;;;7.97;4.10;;;14.90;80.10;;;;;;5058356;28;20099;-75
2021/06/02 09:17:14;;;;;;;6.72;3.90;;;15.00;80.20;;;;;;5060971;28;20108;-76
2021/06/02 09:19:50;;;;;;;5.90;4.15;;;15.10;79.90;;;;;;5061948;28;20138;-76
2021/06/02 09:22:21;;;;;;;6.13;3.95;;;15.10;79.70;;;;;;5061262;28;20067;-76
2021/06/02 09:25:00;;;;;;;5.57;3.90;;;15.10;79.80;;;;;;5058133;28;20072;-75
2021/06/02 09:27:46;;;;;;;4.18;3.65;;;15.20;79.70;;;;;;5067543;28;20036;-75
2021/06/02 09:30:15;;;;;;;6.43;3.88;;;15.20;79.30;;;;;;5073289;28;20031;-75
2021/06/02 09:32:47;;;;;;;3.78;3.40;;;15.30;79.40;;;;;;5073470;28;20109;-75
2021/06/02 09:35:13;;;;;;;4.28;3.63;;;15.30;79.20;;;;;;5073488;28;20030;-74
2021/06/02 09:37:54;;;;;;;5.80;3.35;;;15.40;79.00;;;;;;5066372;28;20048;-74
2021/06/02 09:40:28;;;;;;;11.70;4.13;;;15.40;78.90;;;;;;5071904;28;20067;-76
2021/06/02 09:42:54;;;;;;;10.67;4.07;;;15.40;78.90;;;;;;5072878;28;20060;-76
2021/06/02 09:45:21;;;;;;;5.22;4.35;;;15.40;79.10;;;;;;5068991;28;20466;-76
2021/06/02 09:48:00;;;;;;;5.30;3.80;;;15.50;79.20;;;;;;5062553;28;20098;-76
2021/06/02 09:50:28;;;;;;;5.60;4.00;;;15.50;79.10;;;;;;5061284;28;20033;-74
2021/06/02 09:52:55;;;;;;;5.78;3.90;;;15.50;79.10;;;;;;5070509;28;20024;-74
2021/06/02 09:55:31;;;;;;;6.57;4.57;;;15.50;79.00;;;;;;5065865;28;20100;-74
2021/06/02 09:58:00;;;;;;;7.25;5.00;;;15.40;79.00;;;;;;5073114;28;20135;-75
2021/06/02 10:00:26;;;;;;;6.88;4.60;;;15.40;78.90;;;;;;5072802;28;20103;-75
2021/06/02 10:03:12;;;;;;;8.68;5.70;;;15.40;79.00;;;;;;5073090;28;20087;-75
2021/06/02 10:05:43;;;;;;;7.25;4.20;;;15.40;79.10;;;;;;5072864;28;20040;-75
2021/06/02 10:08:11;;;;;;;7.32;4.28;;;15.40;79.00;;;;;;5069821;28;20032;-75
2021/06/02 10:10:39;;;;;;;5.90;4.22;;;15.40;79.00;;;;;;5013821;28;20020;-75
2021/06/02 10:13:09;;;;;;;6.60;4.45;;;15.40;78.90;;;;;;5071702;28;20029;-80
2021/06/02 10:15:45;;;;;;;5.80;4.00;;;15.50;79.10;;;;;;5074083;28;20035;-81
2021/06/02 10:18:29;;;;;;;5.10;3.80;;;15.50;79.00;;;;;;5076677;28;20082;-80
2021/06/02 10:21:03;;;;;;;5.88;3.90;;;15.50;79.00;;;;;;5076919;28;20024;-81
2021/06/02 10:23:31;;;;;;;8.23;4.57;;;15.60;79.10;;;;;;5083020;28;20428;-81
2021/06/02 10:26:03;;;;;;;6.15;4.22;;;15.50;79.10;;;;;;5070033;28;20029;-80
2021/06/02 10:28:30;;;;;;;9.57;4.25;;;15.60;79.40;;;;;;5065851;28;20068;-81
2021/06/02 10:30:56;;;;;;;6.35;3.95;;;15.70;79.50;;;;;;5065642;28;20107;-81
2021/06/02 10:33:22;;;;;;;5.07;3.95;;;15.70;79.40;;;;;;5068733;28;20064;-81
2021/06/02 10:35:48;;;;;;;6.15;4.30;;;15.80;79.40;;;;;;5065775;28;20044;-81
2021/06/02 10:38:15;;;;;;;8.38;4.78;;;15.90;79.40;;;;;;5066412;28;20497;-81
2021/06/02 10:40:43;;;;;;;7.97;3.65;;;16.00;79.40;;;;;;5067202;28;20385;-81
2021/06/02 10:43:29;;;;;;;7.40;4.07;;;16.10;79.10;;;;;;5067250;28;20032;-81
2021/06/02 10:46:04;;;;;;;6.10;3.78;;;16.10;78.80;;;;;;5068072;28;20024;-82
2021/06/02 10:48:45;;;;;;;7.40;4.05;;;16.20;78.70;;;;;;5072419;28;20060;-81
2021/06/02 10:51:39;;;;;;;6.05;4.35;;;16.20;78.40;;;;;;5064997;28;20076;-81
2021/06/02 10:54:06;;;;;;;4.97;3.75;;;16.20;78.30;;;;;;5068979;28;20032;-81
2021/06/02 10:56:33;;;;;;;9.15;4.50;;;16.20;78.20;;;;;;5055635;28;20033;-80
2021/06/02 10:59:00;;;;;;;10.38;3.72;;;16.30;78.10;;;;;;5042497;28;20025;-81
2021/06/02 11:01:29;;;;;;;8.70;4.18;;;16.30;78.10;;;;;;5062109;28;20486;-81
2021/06/02 11:04:08;;;;;;;7.22;4.55;;;16.20;78.20;;;;;;5074504;28;20378;-83
2021/06/02 11:06:36;;;;;;;4.80;3.97;;;16.30;78.40;;;;;;5063098;28;20465;-80
2021/06/02 11:09:02;;;;;;;7.43;4.18;;;16.30;78.50;;;;;;5056924;28;20017;-79
2021/06/02 11:11:32;;;;;;;6.85;4.10;;;16.20;78.20;;;;;;5062961;28;20067;-80
2021/06/02 11:14:20;;;;;;;14.90;4.55;;;16.20;78.30;;;;;;5064721;28;20071;-81
2021/06/02 11:16:54;;;;;;;8.60;4.95;;;16.20;78.60;;;;;;5065723;28;20043;-81
2021/06/02 11:19:23;;;;;;;6.82;3.65;;;16.10;78.90;;;;;;5061300;28;20047;-79
2021/06/02 11:21:55;;;;;;;4.60;4.05;;;16.10;79.00;;;;;;5064278;28;20024;-80
2021/06/02 11:24:34;;;;;;;6.60;4.53;;;16.10;79.30;;;;;;5064121;28;20103;-81
2021/06/02 11:29:40;;;;;;;5.63;4.65;;;16.10;79.80;;;;;;5081974;28;20386;-83
2021/06/02 11:32:18;;;;;;;6.22;4.00;;;16.20;79.90;;;;;;5075299;28;20425;-82
2021/06/02 11:34:50;;;;;;;10.02;4.85;;;16.20;79.70;;;;;;5075397;28;20113;-83
2021/06/02 11:37:17;;;;;;;7.60;5.20;;;16.20;79.70;;;;;;5072105;28;20382;-82
2021/06/02 11:39:44;;;;;;;5.85;4.70;;;16.20;79.70;;;;;;5055400;28;20029;-82
2021/06/02 11:42:25;;;;;;;6.38;4.70;;;16.20;79.90;;;;;;5060357;28;20036;-80
2021/06/02 11:44:57;;;;;;;12.07;5.05;;;16.20;80.00;;;;;;5064003;28;20025;-82
2021/06/02 11:47:22;;;;;;;6.18;4.43;;;16.20;80.40;;;;;;5063375;28;20059;-81
2021/06/02 11:49:48;;;;;;;7.97;4.50;;;16.20;80.60;;;;;;5063503;28;20028;-79
2021/06/02 11:52:16;;;;;;;6.47;4.70;;;16.20;80.90;;;;;;5063759;28;20029;-80
2021/06/02 11:55:00;;;;;;;9.43;4.60;;;16.30;81.10;;;;;;5061502;28;20017;-82
2021/06/02 11:57:29;;;;;;;6.82;4.50;;;16.30;81.20;;;;;;5062936;28;20434;-82
2021/06/02 11:59:56;;;;;;;9.18;4.88;;;16.30;81.20;;;;;;5058157;28;20048;-83
2021/06/02 12:02:22;;;;;;;9.88;4.72;;;16.30;81.50;;;;;;5063884;28;20055;-82
2021/06/02 12:04:48;;;;;;;6.50;4.20;;;16.30;81.70;;;;;;5063507;28;20432;-82
2021/06/02 12:07:27;;;;;;;7.30;4.43;;;16.30;81.70;;;;;;5062273;28;20036;-82
2021/06/02 12:09:54;;;;;;;5.95;4.25;;;16.30;81.90;;;;;;5053656;28;20029;-80
2021/06/02 12:12:21;;;;;;;6.20;3.90;;;16.30;82.10;;;;;;5062240;28;20449;-81
2021/06/02 12:14:53;;;;;;;7.68;4.72;;;16.30;82.40;;;;;;5062300;28;20104;-81
2021/06/02 12:17:25;;;;;;;6.13;3.97;;;16.20;82.50;;;;;;5075099;28;20040;-80
2021/06/02 12:19:51;;;;;;;7.18;4.35;;;16.30;82.70;;;;;;5070974;28;20107;-80
2021/06/02 12:22:19;;;;;;;8.38;4.60;;;16.30;82.70;;;;;;5061894;28;20523;-80
2021/06/02 12:25:00;;;;;;;9.32;4.32;;;16.30;82.60;;;;;;5064610;28;20493;-82
2021/06/02 12:27:25;;;;;;;7.20;4.78;;;16.30;82.80;;;;;;5059049;28;20379;-81
2021/06/02 12:30:05;;;;;;;7.53;4.43;;;16.30;83.10;;;;;;5066544;28;20028;-81
2021/06/02 12:32:43;;;;;;;6.35;4.65;;;16.30;83.20;;;;;;5030906;28;20025;-81
2021/06/02 12:35:27;;;;;;;6.80;4.28;;;16.30;83.40;;;;;;5064834;28;20132;-81
2021/06/02 12:38:05;;;;;;;7.97;4.53;;;16.30;83.30;;;;;;5065487;28;20021;-80
2021/06/02 12:40:34;;;;;;;5.70;4.40;;;16.30;83.30;;;;;;5062699;28;20029;-80
2021/06/02 12:43:00;;;;;;;9.32;4.65;;;16.40;83.50;;;;;;5063531;28;20017;-80
2021/06/02 12:45:29;;;;;;;6.63;4.60;;;16.40;83.50;;;;;;5063546;28;20362;-81
2021/06/02 12:47:55;;;;;;;7.90;4.53;;;16.40;83.60;;;;;;5062922;28;20025;-79
2021/06/02 12:50:48;;;;;;;8.43;4.97;;;16.40;83.80;;;;;;5073824;28;20067;-81
2021/06/02 12:53:17;;;;;;;9.13;4.80;;;16.40;83.80;;;;;;5072038;28;20424;-80
2021/06/02 12:55:50;;;;;;;6.22;4.20;;;16.40;83.70;;;;;;5062709;28;20083;-80
2021/06/02 12:58:18;;;;;;;6.88;4.78;;;16.40;83.80;;;;;;5059114;28;20032;-79
2021/06/02 13:00:49;;;;;;;9.27;5.15;;;16.40;83.80;;;;;;5052638;28;20060;-84
2021/06/02 13:03:17;;;;;;;8.98;4.90;;;16.50;83.90;;;;;;5059316;28;20111;-87
2021/06/02 13:05:50;;;;;;;9.43;4.78;;;16.50;84.80;;;;;;5062547;28;20024;-82
2021/06/02 13:08:16;;;;;;;10.48;4.78;;;16.50;84.20;;;;;;5062363;28;20443;-84
2021/06/02 13:10:46;;;;;;;9.77;5.00;;;16.60;84.30;;;;;;5065226;28;20036;-81
2021/06/02 13:13:14;;;;;;;7.13;5.22;;;16.60;84.30;;;;;;5064511;28;20081;-76
2021/06/02 13:15:46;;;;;;;10.18;5.20;;;16.60;84.40;;;;;;5061909;28;20118;-77
2021/06/02 13:18:23;;;;;;;9.82;5.10;;;16.60;84.30;;;;;;5061973;28;20036;-77
2021/06/02 13:20:50;;;;;;;8.88;5.60;;;16.70;84.40;;;;;;5063131;28;20029;-78
2021/06/02 13:23:32;;;;;;;10.50;7.30;;;16.70;84.40;;;;;;5061189;28;20024;-76
2021/06/02 13:26:03;;;;;;;9.25;5.28;;;16.80;84.30;;;;;;5061591;28;20116;-78
2021/06/02 13:28:31;;;;;;;8.77;4.60;;;16.80;84.20;;;;;;5060132;28;20064;-77